sensor_id;sensor_type;location;lat;lon;timestamp;temperature;humidity
10702;DHT22;5402;50.004;8.246;2023-05-10T00:00:39;13.10;99.90
10702;DHT22;5402;50.004;8.246;2023-05-10T00:03:06;13.00;99.90
10702;DHT22;5402;50.004;8.246;2023-05-10T00:05:33;13.00;99.90
10702;DHT22;5402;50.004;8.246;2023-05-10T00:07:59;13.00;99.90
10702;DHT22;5402;50.004;8.246;2023-05-10T00:10:27;13.00;99.90
10702;DHT22;5402;50.004;8.246;2023-05-10T00:12:54;13.00;99.90
10702;DHT22;5402;50.004;8.246;2023-05-10T00:15:21;13.00;99.90
10702;DHT22;5402;50.004;8.246;2023-05-10T00:17:47;13.00;99.90
10702;DHT22;5402;50.004;8.246;2023-05-10T00:20:14;13.00;99.90
10702;DHT22;5402;50.004;8.246;2023-05-10T00:22:41;13.00;99.90
10702;DHT22;5402;50.004;8.246;2023-05-10T00:25:08;12.90;99.90
10702;DHT22;5402;50.004;8.246;2023-05-10T00:27:37;12.90;99.90
10702;DHT22;5402;50.004;8.246;2023-05-10T00:30:04;13.00;99.90
10702;DHT22;5402;50.004;8.246;2023-05-10T00:32:31;13.00;99.90
10702;DHT22;5402;50.004;8.246;2023-05-10T00:34:58;13.00;99.90
10702;DHT22;5402;50.004;8.246;2023-05-10T00:37:25;13.00;99.90
10702;DHT22;5402;50.004;8.246;2023-05-10T00:39:51;12.90;99.90
10702;DHT22;5402;50.004;8.246;2023-05-10T00:42:19;12.90;99.90
10702;DHT22;5402;50.004;8.246;2023-05-10T00:44:47;12.90;99.90
10702;DHT22;5402;50.004;8.246;2023-05-10T00:47:14;12.80;99.90
10702;DHT22;5402;50.004;8.246;2023-05-10T00:49:42;12.90;99.90
10702;DHT22;5402;50.004;8.246;2023-05-10T00:52:09;12.90;99.90
10702;DHT22;5402;50.004;8.246;2023-05-10T00:54:36;12.80;99.90
10702;DHT22;5402;50.004;8.246;2023-05-10T00:57:03;12.90;99.90
10702;DHT22;5402;50.004;8.246;2023-05-10T00:59:30;12.90;99.90
10702;DHT22;5402;50.004;8.246;2023-05-10T01:01:58;12.90;99.90
10702;DHT22;5402;50.004;8.246;2023-05-10T01:04:25;12.90;99.90
10702;DHT22;5402;50.004;8.246;2023-05-10T01:06:52;12.90;99.90
10702;DHT22;5402;50.004;8.246;2023-05-10T01:09:19;12.90;99.90
10702;DHT22;5402;50.004;8.246;2023-05-10T01:11:46;12.90;99.90
10702;DHT22;5402;50.004;8.246;2023-05-10T01:14:15;12.80;99.90
10702;DHT22;5402;50.004;8.246;2023-05-10T01:16:45;12.80;99.90
10702;DHT22;5402;50.004;8.246;2023-05-10T01:19:19;12.80;99.90
10702;DHT22;5402;50.004;8.246;2023-05-10T01:21:53;12.80;99.90
10702;DHT22;5402;50.004;8.246;2023-05-10T01:24:46;12.90;99.90
10702;DHT22;5402;50.004;8.246;2023-05-10T01:27:25;12.90;99.90
10702;DHT22;5402;50.004;8.246;2023-05-10T01:30:17;12.80;99.90
10702;DHT22;5402;50.004;8.246;2023-05-10T01:32:52;12.90;99.90
10702;DHT22;5402;50.004;8.246;2023-05-10T01:35:29;12.80;99.90
10702;DHT22;5402;50.004;8.246;2023-05-10T01:38:02;13.00;99.90
10702;DHT22;5402;50.004;8.246;2023-05-10T01:40:35;12.90;99.90
10702;DHT22;5402;50.004;8.246;2023-05-10T01:43:07;12.90;99.90
10702;DHT22;5402;50.004;8.246;2023-05-10T01:45:39;12.90;99.90
10702;DHT22;5402;50.004;8.246;2023-05-10T01:48:11;12.90;99.90
10702;DHT22;5402;50.004;8.246;2023-05-10T01:50:41;12.90;99.90
10702;DHT22;5402;50.004;8.246;2023-05-10T01:53:11;12.90;99.90
10702;DHT22;5402;50.004;8.246;2023-05-10T01:55:43;12.80;99.90
10702;DHT22;5402;50.004;8.246;2023-05-10T01:58:14;12.80;99.90
10702;DHT22;5402;50.004;8.246;2023-05-10T02:00:44;12.80;99.90
10702;DHT22;5402;50.004;8.246;2023-05-10T02:03:14;12.70;99.90
10702;DHT22;5402;50.004;8.246;2023-05-10T02:05:43;12.70;99.90
10702;DHT22;5402;50.004;8.246;2023-05-10T02:08:11;12.70;99.90
10702;DHT22;5402;50.004;8.246;2023-05-10T02:10:39;12.70;99.90
10702;DHT22;5402;50.004;8.246;2023-05-10T02:13:07;12.70;99.90
10702;DHT22;5402;50.004;8.246;2023-05-10T02:15:34;12.70;99.90
10702;DHT22;5402;50.004;8.246;2023-05-10T02:18:03;12.70;99.90
10702;DHT22;5402;50.004;8.246;2023-05-10T02:20:32;12.70;99.90
10702;DHT22;5402;50.004;8.246;2023-05-10T02:23:00;12.70;99.90
10702;DHT22;5402;50.004;8.246;2023-05-10T02:25:27;12.70;99.90
10702;DHT22;5402;50.004;8.246;2023-05-10T02:27:56;12.60;99.90
10702;DHT22;5402;50.004;8.246;2023-05-10T02:30:24;12.60;99.90
10702;DHT22;5402;50.004;8.246;2023-05-10T02:32:51;12.60;99.90
10702;DHT22;5402;50.004;8.246;2023-05-10T02:35:18;12.70;99.90
10702;DHT22;5402;50.004;8.246;2023-05-10T02:37:47;12.70;99.90
10702;DHT22;5402;50.004;8.246;2023-05-10T02:40:15;12.70;99.90
10702;DHT22;5402;50.004;8.246;2023-05-10T02:42:44;12.70;99.90
10702;DHT22;5402;50.004;8.246;2023-05-10T02:45:14;12.70;99.90
10702;DHT22;5402;50.004;8.246;2023-05-10T02:47:41;12.70;99.90
10702;DHT22;5402;50.004;8.246;2023-05-10T02:50:09;12.70;99.90
10702;DHT22;5402;50.004;8.246;2023-05-10T02:52:39;12.70;99.90
10702;DHT22;5402;50.004;8.246;2023-05-10T02:55:10;12.70;99.90
10702;DHT22;5402;50.004;8.246;2023-05-10T02:57:41;12.70;99.90
10702;DHT22;5402;50.004;8.246;2023-05-10T03:00:10;12.70;99.90
10702;DHT22;5402;50.004;8.246;2023-05-10T03:02:37;12.70;99.90
10702;DHT22;5402;50.004;8.246;2023-05-10T03:05:04;12.70;99.90
10702;DHT22;5402;50.004;8.246;2023-05-10T03:07:31;12.70;99.90
10702;DHT22;5402;50.004;8.246;2023-05-10T03:09:59;12.70;99.90
10702;DHT22;5402;50.004;8.246;2023-05-10T03:12:47;12.60;99.90
10702;DHT22;5402;50.004;8.246;2023-05-10T03:15:22;12.70;99.90
10702;DHT22;5402;50.004;8.246;2023-05-10T03:17:55;12.70;99.90
10702;DHT22;5402;50.004;8.246;2023-05-10T03:20:26;12.70;99.90
10702;DHT22;5402;50.004;8.246;2023-05-10T03:22:59;12.70;99.90
10702;DHT22;5402;50.004;8.246;2023-05-10T03:25:27;12.70;99.90
10702;DHT22;5402;50.004;8.246;2023-05-10T03:27:58;12.70;99.90
10702;DHT22;5402;50.004;8.246;2023-05-10T03:30:26;12.70;99.90
10702;DHT22;5402;50.004;8.246;2023-05-10T03:32:53;12.80;99.90
10702;DHT22;5402;50.004;8.246;2023-05-10T03:35:20;12.70;99.90
10702;DHT22;5402;50.004;8.246;2023-05-10T03:37:46;12.70;99.90
10702;DHT22;5402;50.004;8.246;2023-05-10T03:40:13;12.80;99.90
10702;DHT22;5402;50.004;8.246;2023-05-10T03:42:40;12.70;99.90
10702;DHT22;5402;50.004;8.246;2023-05-10T03:45:09;12.70;99.90
10702;DHT22;5402;50.004;8.246;2023-05-10T03:47:36;12.70;99.90
10702;DHT22;5402;50.004;8.246;2023-05-10T03:50:03;12.70;99.90
10702;DHT22;5402;50.004;8.246;2023-05-10T03:52:30;12.80;99.90
10702;DHT22;5402;50.004;8.246;2023-05-10T03:54:57;12.70;99.90
10702;DHT22;5402;50.004;8.246;2023-05-10T03:57:24;12.80;99.90
10702;DHT22;5402;50.004;8.246;2023-05-10T03:59:50;12.80;99.90
10702;DHT22;5402;50.004;8.246;2023-05-10T04:02:18;12.80;99.90
10702;DHT22;5402;50.004;8.246;2023-05-10T04:04:45;12.80;99.90
10702;DHT22;5402;50.004;8.246;2023-05-10T04:07:12;12.80;99.90
10702;DHT22;5402;50.004;8.246;2023-05-10T04:09:38;12.70;99.90
10702;DHT22;5402;50.004;8.246;2023-05-10T04:12:05;12.80;99.90
10702;DHT22;5402;50.004;8.246;2023-05-10T04:14:32;12.80;99.90
10702;DHT22;5402;50.004;8.246;2023-05-10T04:16:59;12.80;99.90
10702;DHT22;5402;50.004;8.246;2023-05-10T04:19:30;12.80;99.90
10702;DHT22;5402;50.004;8.246;2023-05-10T04:21:57;12.80;99.90
10702;DHT22;5402;50.004;8.246;2023-05-10T04:24:24;12.80;99.90
10702;DHT22;5402;50.004;8.246;2023-05-10T04:26:51;12.80;99.90
10702;DHT22;5402;50.004;8.246;2023-05-10T04:29:17;12.90;99.90
10702;DHT22;5402;50.004;8.246;2023-05-10T04:31:44;12.70;99.90
10702;DHT22;5402;50.004;8.246;2023-05-10T04:34:11;12.80;99.90
10702;DHT22;5402;50.004;8.246;2023-05-10T04:36:39;12.70;99.90
10702;DHT22;5402;50.004;8.246;2023-05-10T04:39:05;12.80;99.90
10702;DHT22;5402;50.004;8.246;2023-05-10T04:41:32;12.80;99.90
10702;DHT22;5402;50.004;8.246;2023-05-10T04:43:59;12.90;99.90
10702;DHT22;5402;50.004;8.246;2023-05-10T04:46:26;12.90;99.90
10702;DHT22;5402;50.004;8.246;2023-05-10T04:48:52;12.90;99.90
10702;DHT22;5402;50.004;8.246;2023-05-10T04:51:19;12.90;99.90
10702;DHT22;5402;50.004;8.246;2023-05-10T04:53:47;12.80;99.90
10702;DHT22;5402;50.004;8.246;2023-05-10T04:56:14;12.90;99.90
10702;DHT22;5402;50.004;8.246;2023-05-10T04:58:41;12.80;99.90
10702;DHT22;5402;50.004;8.246;2023-05-10T05:01:08;12.80;99.90
10702;DHT22;5402;50.004;8.246;2023-05-10T05:03:36;13.00;99.90
10702;DHT22;5402;50.004;8.246;2023-05-10T05:06:03;12.80;99.90
10702;DHT22;5402;50.004;8.246;2023-05-10T05:08:30;12.80;99.90
10702;DHT22;5402;50.004;8.246;2023-05-10T05:10:58;12.80;99.90
10702;DHT22;5402;50.004;8.246;2023-05-10T05:13:25;12.80;99.90
10702;DHT22;5402;50.004;8.246;2023-05-10T05:15:51;12.80;99.90
10702;DHT22;5402;50.004;8.246;2023-05-10T05:18:18;12.80;99.90
10702;DHT22;5402;50.004;8.246;2023-05-10T05:20:45;12.80;99.90
10702;DHT22;5402;50.004;8.246;2023-05-10T05:23:12;12.70;99.90
10702;DHT22;5402;50.004;8.246;2023-05-10T05:25:38;12.70;99.90
10702;DHT22;5402;50.004;8.246;2023-05-10T05:28:06;12.70;99.90
10702;DHT22;5402;50.004;8.246;2023-05-10T05:30:33;12.70;99.90
10702;DHT22;5402;50.004;8.246;2023-05-10T05:33:00;12.70;99.90
10702;DHT22;5402;50.004;8.246;2023-05-10T05:35:27;12.70;99.90
10702;DHT22;5402;50.004;8.246;2023-05-10T05:37:54;12.80;99.90
10702;DHT22;5402;50.004;8.246;2023-05-10T05:40:21;12.80;99.90
10702;DHT22;5402;50.004;8.246;2023-05-10T05:42:48;12.80;99.90
10702;DHT22;5402;50.004;8.246;2023-05-10T05:45:16;12.90;99.90
10702;DHT22;5402;50.004;8.246;2023-05-10T05:47:43;13.00;99.90
10702;DHT22;5402;50.004;8.246;2023-05-10T05:50:10;13.10;99.90
10702;DHT22;5402;50.004;8.246;2023-05-10T05:52:37;13.10;99.90
10702;DHT22;5402;50.004;8.246;2023-05-10T05:55:04;13.30;99.90
10702;DHT22;5402;50.004;8.246;2023-05-10T05:57:31;13.30;99.90
10702;DHT22;5402;50.004;8.246;2023-05-10T05:59:57;13.20;99.90
10702;DHT22;5402;50.004;8.246;2023-05-10T06:02:26;13.20;99.90
10702;DHT22;5402;50.004;8.246;2023-05-10T06:04:52;13.30;99.90
10702;DHT22;5402;50.004;8.246;2023-05-10T06:07:19;13.20;99.90
10702;DHT22;5402;50.004;8.246;2023-05-10T06:09:46;13.20;99.90
10702;DHT22;5402;50.004;8.246;2023-05-10T06:12:13;13.20;99.90
10702;DHT22;5402;50.004;8.246;2023-05-10T06:14:39;13.30;99.90
10702;DHT22;5402;50.004;8.246;2023-05-10T06:17:06;13.30;99.90
10702;DHT22;5402;50.004;8.246;2023-05-10T06:19:34;13.40;99.90
10702;DHT22;5402;50.004;8.246;2023-05-10T06:22:02;13.50;99.90
10702;DHT22;5402;50.004;8.246;2023-05-10T06:24:28;13.50;99.90
10702;DHT22;5402;50.004;8.246;2023-05-10T06:26:55;13.60;99.90
10702;DHT22;5402;50.004;8.246;2023-05-10T06:29:22;13.40;99.90
10702;DHT22;5402;50.004;8.246;2023-05-10T06:31:48;13.40;99.90
10702;DHT22;5402;50.004;8.246;2023-05-10T06:34:15;13.40;99.90
10702;DHT22;5402;50.004;8.246;2023-05-10T06:36:43;13.60;99.90
10702;DHT22;5402;50.004;8.246;2023-05-10T06:39:10;13.60;99.90
10702;DHT22;5402;50.004;8.246;2023-05-10T06:41:37;13.60;99.90
10702;DHT22;5402;50.004;8.246;2023-05-10T06:44:04;13.60;99.90
10702;DHT22;5402;50.004;8.246;2023-05-10T06:46:31;13.60;99.90
10702;DHT22;5402;50.004;8.246;2023-05-10T06:48:57;13.70;99.90
10702;DHT22;5402;50.004;8.246;2023-05-10T06:51:24;13.70;99.90
10702;DHT22;5402;50.004;8.246;2023-05-10T06:53:52;13.60;99.90
10702;DHT22;5402;50.004;8.246;2023-05-10T06:56:19;13.60;99.90
10702;DHT22;5402;50.004;8.246;2023-05-10T06:58:47;13.50;99.90
10702;DHT22;5402;50.004;8.246;2023-05-10T07:01:13;13.60;99.90
10702;DHT22;5402;50.004;8.246;2023-05-10T07:03:40;13.70;99.90
10702;DHT22;5402;50.004;8.246;2023-05-10T07:06:07;13.80;99.90
10702;DHT22;5402;50.004;8.246;2023-05-10T07:08:34;13.90;99.90
10702;DHT22;5402;50.004;8.246;2023-05-10T07:11:03;14.00;99.90
10702;DHT22;5402;50.004;8.246;2023-05-10T07:13:30;14.00;99.90
10702;DHT22;5402;50.004;8.246;2023-05-10T07:15:58;13.90;99.90
10702;DHT22;5402;50.004;8.246;2023-05-10T07:18:25;13.90;99.90
10702;DHT22;5402;50.004;8.246;2023-05-10T07:20:52;14.00;99.90
10702;DHT22;5402;50.004;8.246;2023-05-10T07:23:19;14.10;99.90
10702;DHT22;5402;50.004;8.246;2023-05-10T07:25:46;14.20;99.90
10702;DHT22;5402;50.004;8.246;2023-05-10T07:28:14;14.40;99.90
10702;DHT22;5402;50.004;8.246;2023-05-10T07:30:42;14.40;99.90
10702;DHT22;5402;50.004;8.246;2023-05-10T07:33:09;14.50;99.90
10702;DHT22;5402;50.004;8.246;2023-05-10T07:35:38;14.50;99.90
10702;DHT22;5402;50.004;8.246;2023-05-10T07:38:05;14.40;99.90
10702;DHT22;5402;50.004;8.246;2023-05-10T07:40:32;14.40;99.90
10702;DHT22;5402;50.004;8.246;2023-05-10T07:42:59;14.50;99.90
10702;DHT22;5402;50.004;8.246;2023-05-10T07:45:28;14.80;99.90
10702;DHT22;5402;50.004;8.246;2023-05-10T07:47:55;14.70;99.90
10702;DHT22;5402;50.004;8.246;2023-05-10T07:50:21;14.60;99.90
10702;DHT22;5402;50.004;8.246;2023-05-10T07:52:48;14.60;99.90
10702;DHT22;5402;50.004;8.246;2023-05-10T07:55:15;14.70;99.90
10702;DHT22;5402;50.004;8.246;2023-05-10T07:57:42;14.50;99.90
10702;DHT22;5402;50.004;8.246;2023-05-10T08:00:13;14.40;99.90
10702;DHT22;5402;50.004;8.246;2023-05-10T08:02:44;14.30;99.90
10702;DHT22;5402;50.004;8.246;2023-05-10T08:05:11;14.10;99.90
10702;DHT22;5402;50.004;8.246;2023-05-10T08:07:38;14.10;99.90
10702;DHT22;5402;50.004;8.246;2023-05-10T08:10:06;14.20;99.90
10702;DHT22;5402;50.004;8.246;2023-05-10T08:12:33;14.30;99.90
10702;DHT22;5402;50.004;8.246;2023-05-10T08:14:59;14.40;99.90
10702;DHT22;5402;50.004;8.246;2023-05-10T08:17:26;14.50;99.90
10702;DHT22;5402;50.004;8.246;2023-05-10T08:19:54;14.30;99.90
10702;DHT22;5402;50.004;8.246;2023-05-10T08:22:21;14.30;99.90
10702;DHT22;5402;50.004;8.246;2023-05-10T08:24:47;14.30;99.90
10702;DHT22;5402;50.004;8.246;2023-05-10T08:27:14;14.40;99.90
10702;DHT22;5402;50.004;8.246;2023-05-10T08:29:41;14.40;99.90
10702;DHT22;5402;50.004;8.246;2023-05-10T08:32:07;14.60;99.90
10702;DHT22;5402;50.004;8.246;2023-05-10T08:34:35;14.90;99.90
10702;DHT22;5402;50.004;8.246;2023-05-10T08:37:03;14.90;99.90
10702;DHT22;5402;50.004;8.246;2023-05-10T08:39:34;15.10;99.90
10702;DHT22;5402;50.004;8.246;2023-05-10T08:42:03;15.00;99.90
10702;DHT22;5402;50.004;8.246;2023-05-10T08:44:31;15.20;99.90
10702;DHT22;5402;50.004;8.246;2023-05-10T08:46:59;15.30;99.90
10702;DHT22;5402;50.004;8.246;2023-05-10T08:49:30;15.20;99.90
10702;DHT22;5402;50.004;8.246;2023-05-10T08:51:57;15.30;99.90
10702;DHT22;5402;50.004;8.246;2023-05-10T08:54:27;15.20;99.90
10702;DHT22;5402;50.004;8.246;2023-05-10T08:56:54;15.10;99.90
10702;DHT22;5402;50.004;8.246;2023-05-10T08:59:21;15.20;99.90
10702;DHT22;5402;50.004;8.246;2023-05-10T09:01:49;15.40;99.90
10702;DHT22;5402;50.004;8.246;2023-05-10T09:04:19;15.40;99.90
10702;DHT22;5402;50.004;8.246;2023-05-10T09:06:45;15.50;99.90
10702;DHT22;5402;50.004;8.246;2023-05-10T09:09:12;15.60;99.90
10702;DHT22;5402;50.004;8.246;2023-05-10T09:11:41;15.60;99.90
10702;DHT22;5402;50.004;8.246;2023-05-10T09:14:08;15.60;99.90
10702;DHT22;5402;50.004;8.246;2023-05-10T09:16:35;15.60;99.90
10702;DHT22;5402;50.004;8.246;2023-05-10T09:19:02;15.60;99.90
10702;DHT22;5402;50.004;8.246;2023-05-10T09:21:30;15.60;99.90
10702;DHT22;5402;50.004;8.246;2023-05-10T09:24:02;15.50;99.90
10702;DHT22;5402;50.004;8.246;2023-05-10T09:26:29;15.60;99.90
10702;DHT22;5402;50.004;8.246;2023-05-10T09:28:59;15.40;99.90
10702;DHT22;5402;50.004;8.246;2023-05-10T09:31:43;15.10;99.90
10702;DHT22;5402;50.004;8.246;2023-05-10T09:34:13;14.60;99.90
10702;DHT22;5402;50.004;8.246;2023-05-10T09:36:51;14.30;99.90
10702;DHT22;5402;50.004;8.246;2023-05-10T09:39:17;14.20;99.90
10702;DHT22;5402;50.004;8.246;2023-05-10T09:41:44;14.00;99.90
10702;DHT22;5402;50.004;8.246;2023-05-10T09:44:17;14.00;99.90
10702;DHT22;5402;50.004;8.246;2023-05-10T09:46:49;14.10;99.90
10702;DHT22;5402;50.004;8.246;2023-05-10T09:49:16;14.10;99.90
10702;DHT22;5402;50.004;8.246;2023-05-10T09:51:43;14.10;99.90
10702;DHT22;5402;50.004;8.246;2023-05-10T09:54:11;14.40;99.90
10702;DHT22;5402;50.004;8.246;2023-05-10T09:56:38;14.60;99.90
10702;DHT22;5402;50.004;8.246;2023-05-10T09:59:06;14.80;99.90
10702;DHT22;5402;50.004;8.246;2023-05-10T10:01:34;15.10;99.90
10702;DHT22;5402;50.004;8.246;2023-05-10T10:04:03;15.10;99.90
10702;DHT22;5402;50.004;8.246;2023-05-10T10:06:35;15.30;99.90
10702;DHT22;5402;50.004;8.246;2023-05-10T10:09:02;15.60;99.90
10702;DHT22;5402;50.004;8.246;2023-05-10T10:11:29;15.40;99.90
10702;DHT22;5402;50.004;8.246;2023-05-10T10:13:56;15.40;99.90
10702;DHT22;5402;50.004;8.246;2023-05-10T10:16:22;15.70;99.90
10702;DHT22;5402;50.004;8.246;2023-05-10T10:18:51;15.60;99.90
10702;DHT22;5402;50.004;8.246;2023-05-10T10:21:18;16.00;99.90
10702;DHT22;5402;50.004;8.246;2023-05-10T10:23:46;16.20;99.90
10702;DHT22;5402;50.004;8.246;2023-05-10T10:26:13;15.90;99.90
10702;DHT22;5402;50.004;8.246;2023-05-10T10:28:47;16.00;99.90
10702;DHT22;5402;50.004;8.246;2023-05-10T10:31:23;16.00;99.90
10702;DHT22;5402;50.004;8.246;2023-05-10T10:33:59;16.00;99.90
10702;DHT22;5402;50.004;8.246;2023-05-10T10:36:26;15.80;99.90
10702;DHT22;5402;50.004;8.246;2023-05-10T10:39:00;15.50;99.90
10702;DHT22;5402;50.004;8.246;2023-05-10T10:41:33;15.40;99.90
10702;DHT22;5402;50.004;8.246;2023-05-10T10:44:26;15.50;99.90
10702;DHT22;5402;50.004;8.246;2023-05-10T10:47:01;15.50;99.90
10702;DHT22;5402;50.004;8.246;2023-05-10T10:49:32;15.30;99.90
10702;DHT22;5402;50.004;8.246;2023-05-10T10:52:22;15.10;99.90
10702;DHT22;5402;50.004;8.246;2023-05-10T10:54:53;15.10;99.90
10702;DHT22;5402;50.004;8.246;2023-05-10T10:57:21;15.20;99.90
10702;DHT22;5402;50.004;8.246;2023-05-10T10:59:53;15.10;99.90
10702;DHT22;5402;50.004;8.246;2023-05-10T11:02:33;15.30;99.90
10702;DHT22;5402;50.004;8.246;2023-05-10T11:05:34;15.10;99.90
10702;DHT22;5402;50.004;8.246;2023-05-10T11:08:11;15.30;99.90
10702;DHT22;5402;50.004;8.246;2023-05-10T11:10:39;15.20;99.90
10702;DHT22;5402;50.004;8.246;2023-05-10T11:13:07;15.10;99.90
10702;DHT22;5402;50.004;8.246;2023-05-10T11:15:35;15.10;99.90
10702;DHT22;5402;50.004;8.246;2023-05-10T11:18:17;15.00;99.90
10702;DHT22;5402;50.004;8.246;2023-05-10T11:20:50;15.10;99.90
10702;DHT22;5402;50.004;8.246;2023-05-10T11:23:17;15.20;99.90
10702;DHT22;5402;50.004;8.246;2023-05-10T11:25:45;15.50;99.90
10702;DHT22;5402;50.004;8.246;2023-05-10T11:28:12;15.30;99.90
10702;DHT22;5402;50.004;8.246;2023-05-10T11:30:40;15.70;99.90
10702;DHT22;5402;50.004;8.246;2023-05-10T11:33:07;15.60;99.90
10702;DHT22;5402;50.004;8.246;2023-05-10T11:35:38;15.70;99.90
10702;DHT22;5402;50.004;8.246;2023-05-10T11:38:07;16.30;99.90
10702;DHT22;5402;50.004;8.246;2023-05-10T11:40:34;16.80;99.90
10702;DHT22;5402;50.004;8.246;2023-05-10T11:43:02;16.70;99.90
10702;DHT22;5402;50.004;8.246;2023-05-10T11:45:29;16.80;99.90
10702;DHT22;5402;50.004;8.246;2023-05-10T11:47:57;17.10;99.90
10702;DHT22;5402;50.004;8.246;2023-05-10T11:50:24;17.20;99.90
10702;DHT22;5402;50.004;8.246;2023-05-10T11:52:51;17.60;99.90
10702;DHT22;5402;50.004;8.246;2023-05-10T11:55:20;18.00;99.90
10702;DHT22;5402;50.004;8.246;2023-05-10T11:57:47;18.30;99.90
10702;DHT22;5402;50.004;8.246;2023-05-10T12:00:14;18.30;99.90
10702;DHT22;5402;50.004;8.246;2023-05-10T12:02:41;18.20;99.90
10702;DHT22;5402;50.004;8.246;2023-05-10T12:05:09;18.20;99.90
10702;DHT22;5402;50.004;8.246;2023-05-10T12:07:36;18.20;99.90
10702;DHT22;5402;50.004;8.246;2023-05-10T12:10:05;18.20;99.90
10702;DHT22;5402;50.004;8.246;2023-05-10T12:12:37;18.30;99.90
10702;DHT22;5402;50.004;8.246;2023-05-10T12:15:05;18.70;99.90
10702;DHT22;5402;50.004;8.246;2023-05-10T12:17:39;18.90;99.90
10702;DHT22;5402;50.004;8.246;2023-05-10T12:20:13;18.90;99.90
10702;DHT22;5402;50.004;8.246;2023-05-10T12:22:40;18.90;99.90
10702;DHT22;5402;50.004;8.246;2023-05-10T12:25:09;18.80;99.90
10702;DHT22;5402;50.004;8.246;2023-05-10T12:27:37;18.50;99.90
10702;DHT22;5402;50.004;8.246;2023-05-10T12:30:05;18.40;99.90
10702;DHT22;5402;50.004;8.246;2023-05-10T12:32:39;18.60;99.90
10702;DHT22;5402;50.004;8.246;2023-05-10T12:35:07;19.20;99.90
10702;DHT22;5402;50.004;8.246;2023-05-10T12:37:34;19.30;99.90
10702;DHT22;5402;50.004;8.246;2023-05-10T12:40:06;19.20;99.90
10702;DHT22;5402;50.004;8.246;2023-05-10T12:42:33;18.90;99.90
10702;DHT22;5402;50.004;8.246;2023-05-10T12:45:02;18.70;99.90
10702;DHT22;5402;50.004;8.246;2023-05-10T12:47:29;18.90;99.90
10702;DHT22;5402;50.004;8.246;2023-05-10T12:49:56;19.00;99.90
10702;DHT22;5402;50.004;8.246;2023-05-10T12:52:22;19.10;99.90
10702;DHT22;5402;50.004;8.246;2023-05-10T12:54:49;19.00;99.90
10702;DHT22;5402;50.004;8.246;2023-05-10T12:57:16;19.10;99.90
10702;DHT22;5402;50.004;8.246;2023-05-10T12:59:43;18.70;99.90
10702;DHT22;5402;50.004;8.246;2023-05-10T13:02:11;18.40;99.90
10702;DHT22;5402;50.004;8.246;2023-05-10T13:04:38;18.50;99.90
10702;DHT22;5402;50.004;8.246;2023-05-10T13:07:05;18.40;99.90
10702;DHT22;5402;50.004;8.246;2023-05-10T13:09:32;18.40;99.90
10702;DHT22;5402;50.004;8.246;2023-05-10T13:12:01;18.60;99.90
10702;DHT22;5402;50.004;8.246;2023-05-10T13:14:28;18.40;99.90
10702;DHT22;5402;50.004;8.246;2023-05-10T13:16:57;18.30;99.90
10702;DHT22;5402;50.004;8.246;2023-05-10T13:19:25;18.20;99.90
10702;DHT22;5402;50.004;8.246;2023-05-10T13:21:52;18.40;99.90
10702;DHT22;5402;50.004;8.246;2023-05-10T13:24:19;18.30;99.90
10702;DHT22;5402;50.004;8.246;2023-05-10T13:26:45;18.30;99.90
10702;DHT22;5402;50.004;8.246;2023-05-10T13:29:12;18.40;99.90
10702;DHT22;5402;50.004;8.246;2023-05-10T13:31:39;18.50;99.90
10702;DHT22;5402;50.004;8.246;2023-05-10T13:34:05;18.70;99.90
10702;DHT22;5402;50.004;8.246;2023-05-10T13:36:34;18.70;99.90
10702;DHT22;5402;50.004;8.246;2023-05-10T13:39:00;18.70;99.90
10702;DHT22;5402;50.004;8.246;2023-05-10T13:41:28;18.70;99.90
10702;DHT22;5402;50.004;8.246;2023-05-10T13:43:57;18.80;99.90
10702;DHT22;5402;50.004;8.246;2023-05-10T13:46:24;18.80;99.90
10702;DHT22;5402;50.004;8.246;2023-05-10T13:48:50;18.80;99.90
10702;DHT22;5402;50.004;8.246;2023-05-10T13:51:17;18.70;99.90
10702;DHT22;5402;50.004;8.246;2023-05-10T13:53:45;18.70;99.90
10702;DHT22;5402;50.004;8.246;2023-05-10T13:56:13;18.70;99.90
10702;DHT22;5402;50.004;8.246;2023-05-10T13:58:39;18.70;99.90
10702;DHT22;5402;50.004;8.246;2023-05-10T14:01:06;18.90;99.90
10702;DHT22;5402;50.004;8.246;2023-05-10T14:03:33;19.10;99.90
10702;DHT22;5402;50.004;8.246;2023-05-10T14:06:00;19.20;99.90
10702;DHT22;5402;50.004;8.246;2023-05-10T14:08:26;19.30;99.90
10702;DHT22;5402;50.004;8.246;2023-05-10T14:10:55;19.10;99.90
10702;DHT22;5402;50.004;8.246;2023-05-10T14:13:23;19.20;99.90
10702;DHT22;5402;50.004;8.246;2023-05-10T14:15:50;19.10;99.90
10702;DHT22;5402;50.004;8.246;2023-05-10T14:18:16;19.20;99.90
10702;DHT22;5402;50.004;8.246;2023-05-10T14:20:43;19.30;99.90
10702;DHT22;5402;50.004;8.246;2023-05-10T14:23:10;19.20;99.90
10702;DHT22;5402;50.004;8.246;2023-05-10T14:25:37;19.30;99.90
10702;DHT22;5402;50.004;8.246;2023-05-10T14:28:06;19.10;99.90
10702;DHT22;5402;50.004;8.246;2023-05-10T14:30:32;19.20;99.90
10702;DHT22;5402;50.004;8.246;2023-05-10T14:32:59;19.20;99.90
10702;DHT22;5402;50.004;8.246;2023-05-10T14:35:26;19.20;99.90
10702;DHT22;5402;50.004;8.246;2023-05-10T14:37:53;19.20;99.90
10702;DHT22;5402;50.004;8.246;2023-05-10T14:40:20;19.30;99.90
10702;DHT22;5402;50.004;8.246;2023-05-10T14:42:47;19.40;99.90
10702;DHT22;5402;50.004;8.246;2023-05-10T14:45:15;19.30;99.90
10702;DHT22;5402;50.004;8.246;2023-05-10T14:47:41;19.30;99.90
10702;DHT22;5402;50.004;8.246;2023-05-10T14:50:09;19.40;99.90
10702;DHT22;5402;50.004;8.246;2023-05-10T14:52:35;19.50;99.90
10702;DHT22;5402;50.004;8.246;2023-05-10T14:55:02;19.50;99.90
10702;DHT22;5402;50.004;8.246;2023-05-10T14:57:29;19.40;99.90
10702;DHT22;5402;50.004;8.246;2023-05-10T14:59:56;19.20;99.90
10702;DHT22;5402;50.004;8.246;2023-05-10T15:02:24;19.30;99.90
10702;DHT22;5402;50.004;8.246;2023-05-10T15:04:51;19.20;99.90
10702;DHT22;5402;50.004;8.246;2023-05-10T15:07:18;19.00;99.90
10702;DHT22;5402;50.004;8.246;2023-05-10T15:09:44;19.20;99.90
10702;DHT22;5402;50.004;8.246;2023-05-10T15:12:11;19.20;99.90
10702;DHT22;5402;50.004;8.246;2023-05-10T15:14:38;19.40;99.90
10702;DHT22;5402;50.004;8.246;2023-05-10T15:17:06;19.50;99.90
10702;DHT22;5402;50.004;8.246;2023-05-10T15:19:34;19.40;99.90
10702;DHT22;5402;50.004;8.246;2023-05-10T15:22:01;19.40;99.90
10702;DHT22;5402;50.004;8.246;2023-05-10T15:24:28;19.50;99.90
10702;DHT22;5402;50.004;8.246;2023-05-10T15:26:54;19.40;99.90
10702;DHT22;5402;50.004;8.246;2023-05-10T15:29:21;19.50;99.90
10702;DHT22;5402;50.004;8.246;2023-05-10T15:31:49;19.50;99.90
10702;DHT22;5402;50.004;8.246;2023-05-10T15:34:16;19.40;99.90
10702;DHT22;5402;50.004;8.246;2023-05-10T15:36:44;19.20;99.90
10702;DHT22;5402;50.004;8.246;2023-05-10T15:39:11;19.20;99.90
10702;DHT22;5402;50.004;8.246;2023-05-10T15:41:38;19.00;99.90
10702;DHT22;5402;50.004;8.246;2023-05-10T15:44:05;19.00;99.90
10702;DHT22;5402;50.004;8.246;2023-05-10T15:46:31;19.20;99.90
10702;DHT22;5402;50.004;8.246;2023-05-10T15:48:58;19.10;99.90
10702;DHT22;5402;50.004;8.246;2023-05-10T15:51:25;19.10;99.90